Time;durP1;ratioP1;P1;durP2;ratioP2;P2;SDS_P1;SDS_P2;PMS_P1;PMS_P2;Temp;Humidity;BMP_temperature;BMP_pressure;BME280_temperature;BME280_humidity;BME280_pressure;Samples;Min_cycle;Max_cycle;Signal;HPM_P1;HPM_P2
2023/12/24 00:01:06;;;;;;;2.17;0.25;;;10.10;99.90;;;;;;5033906;28;20480;-88
2023/12/24 00:03:33;;;;;;;1.27;0.20;;;10.10;99.90;;;;;;5032701;28;20539;-88
2023/12/24 00:05:59;;;;;;;0.35;0.20;;;10.10;99.90;;;;;;5033141;28;20091;-88
2023/12/24 00:08:28;;;;;;;0.65;0.38;;;10.10;99.90;;;;;;5032968;28;20029;-89
2023/12/24 00:10:55;;;;;;;0.60;0.40;;;10.10;99.90;;;;;;5032300;28;20025;-89
2023/12/24 00:13:20;;;;;;;1.98;0.60;;;10.10;99.90;;;;;;5032905;28;20036;-89
2023/12/24 00:15:46;;;;;;;1.10;0.55;;;10.10;99.90;;;;;;5032813;28;20489;-88
2023/12/24 00:18:11;;;;;;;0.65;0.45;;;10.10;99.90;;;;;;5033078;28;20037;-89
2023/12/24 00:20:37;;;;;;;1.17;0.28;;;10.10;99.90;;;;;;5032701;28;20481;-89
2023/12/24 00:23:07;;;;;;;0.20;0.20;;;10.10;99.90;;;;;;5033718;28;20483;-88
2023/12/24 00:25:35;;;;;;;0.77;0.40;;;10.10;99.90;;;;;;5032646;28;20033;-90
2023/12/24 00:28:01;;;;;;;0.40;0.40;;;10.10;99.90;;;;;;5032614;28;20030;-88
2023/12/24 00:30:27;;;;;;;0.13;0.13;;;10.10;99.90;;;;;;5032545;28;20396;-90
2023/12/24 00:32:56;;;;;;;0.93;0.20;;;10.10;99.90;;;;;;5030421;28;20049;-90
2023/12/24 00:35:23;;;;;;;0.20;0.20;;;10.10;99.90;;;;;;5032262;28;20038;-90
2023/12/24 00:37:49;;;;;;;1.13;0.68;;;10.10;99.90;;;;;;5032251;28;20088;-90
2023/12/24 00:40:17;;;;;;;1.50;0.40;;;10.10;99.90;;;;;;5034025;28;20374;-89
2023/12/24 00:42:43;;;;;;;0.93;0.80;;;10.10;99.90;;;;;;5033679;28;20388;-90
2023/12/24 00:45:10;;;;;;;1.13;0.80;;;10.10;99.90;;;;;;5032147;28;20064;-90
2023/12/24 00:47:35;;;;;;;1.33;0.30;;;10.10;99.90;;;;;;5032186;28;20067;-90
2023/12/24 00:50:01;;;;;;;0.65;0.47;;;10.10;99.90;;;;;;5033243;28;20053;-88
2023/12/24 00:52:27;;;;;;;0.45;0.30;;;10.10;99.90;;;;;;5033547;28;20021;-88
2023/12/24 00:54:53;;;;;;;0.40;0.40;;;10.10;99.90;;;;;;5033503;28;20091;-89
2023/12/24 00:57:19;;;;;;;0.20;0.10;;;10.10;99.90;;;;;;5032412;28;20064;-89
2023/12/24 00:59:45;;;;;;;0.35;0.30;;;10.10;99.90;;;;;;5033452;28;20052;-88
2023/12/24 01:02:11;;;;;;;0.55;0.22;;;10.20;99.90;;;;;;5033145;28;20029;-88
2023/12/24 01:04:36;;;;;;;0.20;0.20;;;10.20;99.90;;;;;;5033057;28;20038;-89
2023/12/24 01:07:02;;;;;;;0.73;0.35;;;10.20;99.90;;;;;;5033353;28;20058;-89
2023/12/24 01:09:28;;;;;;;1.95;0.63;;;10.20;99.90;;;;;;5033179;28;20080;-89
2023/12/24 01:11:53;;;;;;;2.55;0.70;;;10.20;99.90;;;;;;5033331;28;20060;-90
2023/12/24 01:14:19;;;;;;;4.25;1.20;;;10.30;99.90;;;;;;5033176;28;20033;-89
2023/12/24 01:16:45;;;;;;;1.17;0.40;;;10.30;99.90;;;;;;5033146;28;20032;-88
2023/12/24 01:19:11;;;;;;;0.40;0.30;;;10.30;99.90;;;;;;5032013;28;20392;-88
2023/12/24 01:21:37;;;;;;;2.03;0.30;;;10.30;99.90;;;;;;5032799;28;20025;-88
2023/12/24 01:24:03;;;;;;;0.47;0.30;;;10.30;99.90;;;;;;5036491;28;20439;-88
2023/12/24 01:26:28;;;;;;;0.35;0.25;;;10.30;99.90;;;;;;5035890;28;20112;-88
2023/12/24 01:28:54;;;;;;;2.50;0.38;;;10.30;99.90;;;;;;5035509;28;20416;-88
2023/12/24 01:31:20;;;;;;;0.43;0.28;;;10.40;99.90;;;;;;5036755;28;20453;-88
2023/12/24 01:33:46;;;;;;;2.08;0.90;;;10.40;99.90;;;;;;5036931;28;20559;-88
2023/12/24 01:36:11;;;;;;;1.80;0.40;;;10.40;99.90;;;;;;5037491;28;20120;-88
2023/12/24 01:38:37;;;;;;;2.42;0.38;;;10.40;99.90;;;;;;5040039;28;20053;-89
2023/12/24 01:41:03;;;;;;;0.80;0.20;;;10.40;99.90;;;;;;5037923;28;20026;-88
2023/12/24 01:43:29;;;;;;;0.30;0.30;;;10.40;99.90;;;;;;5039417;28;20030;-88
2023/12/24 01:45:55;;;;;;;0.22;0.22;;;10.40;99.90;;;;;;5038931;28;20460;-88
2023/12/24 01:48:21;;;;;;;1.15;0.30;;;10.50;99.90;;;;;;5038375;28;20456;-88
2023/12/24 01:50:48;;;;;;;0.60;0.30;;;10.50;99.90;;;;;;5038302;28;20030;-88
2023/12/24 01:53:18;;;;;;;0.32;0.20;;;10.50;99.90;;;;;;5040015;28;20057;-88
2023/12/24 01:55:47;;;;;;;0.22;0.22;;;10.50;99.90;;;;;;5038295;28;20052;-88
2023/12/24 01:58:13;;;;;;;0.55;0.20;;;10.50;99.90;;;;;;5036994;28;20035;-88
2023/12/24 02:00:40;;;;;;;0.68;0.20;;;10.50;99.90;;;;;;5037318;28;20128;-88
2023/12/24 02:03:06;;;;;;;0.40;0.20;;;10.60;99.90;;;;;;5039387;28;20044;-88
2023/12/24 02:05:31;;;;;;;0.95;0.25;;;10.60;99.90;;;;;;5040300;28;20477;-88
2023/12/24 02:08:00;;;;;;;0.28;0.15;;;10.60;99.90;;;;;;5039672;28;20104;-88
2023/12/24 02:10:26;;;;;;;0.55;0.22;;;10.60;99.90;;;;;;5039683;28;20540;-89
2023/12/24 02:12:51;;;;;;;0.20;0.20;;;10.60;99.90;;;;;;5038636;28;20022;-89
2023/12/24 02:15:17;;;;;;;2.03;0.20;;;10.60;99.90;;;;;;5038626;28;20021;-88
2023/12/24 02:17:43;;;;;;;1.23;0.20;;;10.60;99.90;;;;;;5039795;28;20504;-89
2023/12/24 02:20:10;;;;;;;0.80;0.63;;;10.60;99.90;;;;;;5037138;28;20113;-88
2023/12/24 02:22:36;;;;;;;1.00;0.30;;;10.60;99.90;;;;;;5036740;28;20029;-88
2023/12/24 02:25:03;;;;;;;1.55;0.32;;;10.50;99.90;;;;;;5035122;28;20052;-89
2023/12/24 02:27:45;;;;;;;0.52;0.20;;;10.50;99.90;;;;;;5035224;28;20025;-89
2023/12/24 02:30:17;;;;;;;0.45;0.17;;;10.60;99.90;;;;;;5034837;28;20032;-88
2023/12/24 02:32:44;;;;;;;0.20;0.20;;;10.60;99.90;;;;;;5034404;28;20485;-89
2023/12/24 02:35:12;;;;;;;1.65;0.28;;;10.50;99.90;;;;;;5035274;28;20252;-89
2023/12/24 02:37:37;;;;;;;1.63;0.30;;;10.60;99.90;;;;;;5034685;28;20120;-89
2023/12/24 02:40:06;;;;;;;3.10;0.60;;;10.60;99.90;;;;;;5036034;28;20053;-88
2023/12/24 02:42:32;;;;;;;3.75;0.77;;;10.60;99.90;;;;;;5034885;28;20033;-88
2023/12/24 02:44:58;;;;;;;1.33;0.38;;;10.60;99.90;;;;;;5035463;28;20063;-88
2023/12/24 02:47:23;;;;;;;1.05;0.20;;;10.60;99.90;;;;;;5034610;28;20419;-88
2023/12/24 02:49:49;;;;;;;0.77;0.50;;;10.70;99.90;;;;;;5035608;28;20036;-88
2023/12/24 02:52:15;;;;;;;0.55;0.43;;;10.70;99.90;;;;;;5035319;28;20064;-88
2023/12/24 02:54:40;;;;;;;2.92;0.45;;;10.70;99.90;;;;;;5034605;28;20384;-89
2023/12/24 02:57:06;;;;;;;2.05;0.50;;;10.70;99.90;;;;;;5034271;28;20033;-88
2023/12/24 02:59:32;;;;;;;1.50;0.68;;;10.70;99.90;;;;;;5035483;28;20021;-88
2023/12/24 03:01:58;;;;;;;1.65;0.50;;;10.80;99.90;;;;;;5035273;28;20381;-89
2023/12/24 03:04:23;;;;;;;3.25;0.40;;;10.80;99.90;;;;;;5034076;28;20041;-89
2023/12/24 03:06:49;;;;;;;1.75;0.50;;;10.80;99.90;;;;;;5035351;28;20107;-89
2023/12/24 03:09:18;;;;;;;1.30;0.40;;;10.80;99.90;;;;;;5033855;28;20025;-89
2023/12/24 03:11:44;;;;;;;4.20;0.90;;;10.80;99.90;;;;;;5033566;28;20048;-89
2023/12/24 03:14:10;;;;;;;2.10;0.60;;;10.90;99.90;;;;;;5035006;28;20025;-89
2023/12/24 03:16:35;;;;;;;3.38;0.50;;;10.90;99.90;;;;;;5035071;28;20049;-89
2023/12/24 03:19:01;;;;;;;1.15;0.45;;;10.90;99.90;;;;;;5034088;28;20034;-89
2023/12/24 03:21:27;;;;;;;1.75;0.75;;;10.90;99.90;;;;;;5033675;28;20025;-90
2023/12/24 03:23:52;;;;;;;1.42;0.50;;;10.90;99.90;;;;;;5034656;28;20033;-90
2023/12/24 03:26:22;;;;;;;5.28;0.70;;;10.90;99.90;;;;;;5033629;28;20400;-90
2023/12/24 03:28:51;;;;;;;3.63;0.57;;;11.00;99.90;;;;;;5033625;28;20029;-90
2023/12/24 03:31:18;;;;;;;3.97;0.73;;;10.90;99.90;;;;;;5034793;28;20076;-89
2023/12/24 03:33:44;;;;;;;2.03;0.50;;;10.90;99.90;;;;;;5033484;28;20057;-89
2023/12/24 03:36:10;;;;;;;1.92;0.60;;;11.00;99.90;;;;;;5033397;28;20025;-88
2023/12/24 03:38:36;;;;;;;5.10;0.90;;;11.00;99.90;;;;;;5034608;28;20037;-90
2023/12/24 03:41:02;;;;;;;5.57;0.85;;;11.00;99.90;;;;;;5033559;28;20033;-88
2023/12/24 03:43:29;;;;;;;3.80;0.75;;;11.00;99.90;;;;;;5033152;28;20112;-87
2023/12/24 03:45:54;;;;;;;2.97;0.93;;;11.00;99.90;;;;;;5033557;28;20120;-88
2023/12/24 03:48:20;;;;;;;5.38;0.88;;;11.00;99.90;;;;;;5034278;28;20056;-88
2023/12/24 03:50:47;;;;;;;6.05;1.98;;;11.10;99.90;;;;;;5033331;28;20041;-88
2023/12/24 03:53:12;;;;;;;3.05;1.10;;;11.10;99.90;;;;;;5033426;28;20030;-88
2023/12/24 03:55:38;;;;;;;3.72;1.08;;;11.10;99.90;;;;;;5033100;28;20025;-88
2023/12/24 03:58:04;;;;;;;3.17;1.00;;;11.10;99.90;;;;;;5033188;28;20504;-88
2023/12/24 04:00:29;;;;;;;2.15;1.00;;;11.10;99.90;;;;;;5033406;28;20112;-88
2023/12/24 04:02:55;;;;;;;4.78;1.25;;;11.10;99.90;;;;;;5032992;28;20480;-88
2023/12/24 04:05:21;;;;;;;2.72;0.77;;;11.20;99.90;;;;;;5032887;28;20037;-87
2023/12/24 04:07:47;;;;;;;2.45;0.75;;;11.30;99.90;;;;;;5032895;28;20021;-90
2023/12/24 04:10:13;;;;;;;4.18;1.00;;;11.30;99.90;;;;;;5034312;28;20105;-88
2023/12/24 04:12:40;;;;;;;6.30;0.80;;;11.30;99.90;;;;;;5037411;28;20029;-87
2023/12/24 04:15:07;;;;;;;2.22;0.57;;;11.40;99.90;;;;;;5036863;28;20018;-87
2023/12/24 04:17:34;;;;;;;5.35;1.10;;;11.30;99.90;;;;;;5036302;28;20044;-88
2023/12/24 04:20:03;;;;;;;1.58;0.70;;;11.40;99.90;;;;;;5036763;28;20032;-87
2023/12/24 04:22:28;;;;;;;9.10;1.35;;;11.40;99.90;;;;;;5033949;28;20064;-87
2023/12/24 04:24:54;;;;;;;2.22;0.85;;;11.40;99.90;;;;;;5034623;28;20033;-86
2023/12/24 04:27:20;;;;;;;2.25;0.70;;;11.40;99.90;;;;;;5034431;28;20029;-89
2023/12/24 04:29:45;;;;;;;1.30;0.77;;;11.40;99.90;;;;;;5034178;28;20032;-89
2023/12/24 04:32:12;;;;;;;5.40;0.77;;;11.40;99.90;;;;;;5032590;28;20042;-87
2023/12/24 04:34:38;;;;;;;4.50;0.50;;;11.40;99.90;;;;;;5032612;28;20029;-88
2023/12/24 04:37:07;;;;;;;3.88;1.20;;;11.50;99.90;;;;;;5032356;28;20061;-88
2023/12/24 04:39:32;;;;;;;3.95;0.90;;;11.50;99.90;;;;;;5033104;28;20030;-89
2023/12/24 04:41:58;;;;;;;2.40;0.70;;;11.50;99.90;;;;;;5032495;28;20515;-86
2023/12/24 04:44:24;;;;;;;3.95;0.80;;;11.50;99.90;;;;;;5032514;28;20456;-89
2023/12/24 04:46:50;;;;;;;5.82;1.00;;;11.50;99.90;;;;;;5034029;28;20029;-88
2023/12/24 04:49:15;;;;;;;2.30;0.68;;;11.60;99.90;;;;;;5033582;28;20017;-89
2023/12/24 04:51:41;;;;;;;2.95;1.00;;;11.60;99.90;;;;;;5032495;28;20369;-88
2023/12/24 04:54:07;;;;;;;3.78;1.10;;;11.60;99.90;;;;;;5033772;28;20021;-89
2023/12/24 04:56:33;;;;;;;4.20;0.90;;;11.60;99.90;;;;;;5033556;28;20101;-89
2023/12/24 04:58:59;;;;;;;9.48;1.30;;;11.70;99.90;;;;;;5032205;28;20027;-89
2023/12/24 05:01:25;;;;;;;6.50;0.77;;;11.60;99.90;;;;;;5032292;28;20021;-88
2023/12/24 05:03:51;;;;;;;5.32;0.85;;;11.70;99.90;;;;;;5032490;28;20087;-88
2023/12/24 05:06:17;;;;;;;2.50;0.88;;;11.70;99.90;;;;;;5032326;28;20029;-88
2023/12/24 05:08:42;;;;;;;2.85;0.82;;;11.70;99.90;;;;;;5032084;28;20052;-88
2023/12/24 05:11:09;;;;;;;4.82;0.73;;;11.70;99.90;;;;;;5033427;28;20049;-89
2023/12/24 05:13:35;;;;;;;2.85;0.70;;;11.70;99.90;;;;;;5032477;28;20026;-88
2023/12/24 05:16:02;;;;;;;3.53;0.73;;;11.70;99.90;;;;;;5033620;28;20487;-89
2023/12/24 05:18:28;;;;;;;4.40;0.65;;;11.70;99.90;;;;;;5032867;28;20094;-89
2023/12/24 05:20:54;;;;;;;4.13;0.73;;;11.70;99.90;;;;;;5032497;28;20030;-89
2023/12/24 05:23:23;;;;;;;0.80;0.47;;;11.80;99.90;;;;;;5032410;28;20024;-89
2023/12/24 05:25:48;;;;;;;4.60;0.85;;;11.80;99.90;;;;;;5032675;28;20061;-88
2023/12/24 05:28:16;;;;;;;5.20;0.80;;;11.80;99.90;;;;;;5033383;28;20071;-89
2023/12/24 05:30:42;;;;;;;4.90;0.80;;;11.80;99.90;;;;;;5033378;28;20026;-89
2023/12/24 05:33:08;;;;;;;1.17;0.52;;;11.80;99.90;;;;;;5032936;28;20052;-89
2023/12/24 05:35:33;;;;;;;2.10;0.60;;;11.80;99.90;;;;;;5034217;28;20028;-89
2023/12/24 05:37:59;;;;;;;2.42;0.65;;;11.90;99.90;;;;;;5033980;28;20043;-89
2023/12/24 05:40:24;;;;;;;3.13;0.98;;;11.90;99.90;;;;;;5033206;28;20025;-89
2023/12/24 05:42:50;;;;;;;2.58;0.60;;;11.90;99.90;;;;;;5033322;28;20026;-89
2023/12/24 05:45:16;;;;;;;2.78;0.77;;;11.90;99.90;;;;;;5034200;28;20033;-90
2023/12/24 05:47:42;;;;;;;2.55;0.50;;;11.90;99.90;;;;;;5033276;28;20461;-90
2023/12/24 05:50:08;;;;;;;1.13;0.50;;;11.90;99.90;;;;;;5032261;28;20060;-90
2023/12/24 05:52:35;;;;;;;6.80;0.80;;;11.90;99.90;;;;;;5032603;28;20025;-90
2023/12/24 05:55:01;;;;;;;2.72;0.60;;;11.90;99.90;;;;;;5032349;28;20151;-90
2023/12/24 05:57:27;;;;;;;3.13;0.88;;;11.90;99.90;;;;;;5033827;28;20037;-89
2023/12/24 05:59:53;;;;;;;2.45;0.70;;;11.90;99.90;;;;;;5032412;28;20140;-88
2023/12/24 06:02:19;;;;;;;1.98;0.70;;;11.90;99.90;;;;;;5032371;28;20033;-88
2023/12/24 06:04:45;;;;;;;4.97;0.52;;;11.90;99.90;;;;;;5032576;28;20033;-88
2023/12/24 06:07:11;;;;;;;3.97;1.08;;;11.90;99.90;;;;;;5031913;28;20033;-90
2023/12/24 06:09:36;;;;;;;2.28;1.00;;;11.90;99.90;;;;;;5033386;28;20484;-89
2023/12/24 06:12:03;;;;;;;5.22;1.38;;;11.90;99.90;;;;;;5037088;28;20064;-89
2023/12/24 06:14:29;;;;;;;2.55;0.80;;;11.90;99.90;;;;;;5035345;28;20496;-89
2023/12/24 06:16:55;;;;;;;3.97;0.85;;;11.90;99.90;;;;;;5034990;28;20029;-89
2023/12/24 06:19:20;;;;;;;1.00;0.45;;;12.00;99.90;;;;;;5035208;28;20025;-88
2023/12/24 06:21:46;;;;;;;4.72;1.17;;;12.00;99.90;;;;;;5034959;28;20025;-90
2023/12/24 06:24:12;;;;;;;7.07;0.95;;;12.00;99.90;;;;;;5035465;28;20034;-89
2023/12/24 06:26:38;;;;;;;4.25;0.60;;;12.00;99.90;;;;;;5036619;28;20496;-91
2023/12/24 06:29:04;;;;;;;3.35;0.70;;;12.00;99.90;;;;;;5034830;28;20026;-90
2023/12/24 06:31:29;;;;;;;0.60;0.25;;;12.00;99.90;;;;;;5035201;28;20032;-89
2023/12/24 06:33:55;;;;;;;0.55;0.40;;;12.00;99.90;;;;;;5035930;28;20033;-89
2023/12/24 06:36:21;;;;;;;4.15;0.30;;;12.00;99.90;;;;;;5036376;28;20119;-89
2023/12/24 06:38:47;;;;;;;0.20;0.20;;;12.00;99.90;;;;;;5035821;28;20446;-90
2023/12/24 06:41:13;;;;;;;7.90;1.83;;;12.00;99.90;;;;;;5037267;28;20104;-90
2023/12/24 06:43:39;;;;;;;1.67;0.25;;;12.00;99.90;;;;;;5036354;28;20573;-90
2023/12/24 06:46:12;;;;;;;0.98;0.20;;;11.90;99.90;;;;;;5034874;28;20029;-91
2023/12/24 06:48:41;;;;;;;1.05;0.50;;;12.00;99.90;;;;;;5034893;28;20125;-89
2023/12/24 06:51:07;;;;;;;0.43;0.25;;;11.90;99.90;;;;;;5034746;28;20056;-89
2023/12/24 06:53:33;;;;;;;1.05;0.28;;;12.00;99.90;;;;;;5034891;28;20032;-90
2023/12/24 06:55:59;;;;;;;1.05;0.20;;;12.00;99.90;;;;;;5035883;28;20217;-89
2023/12/24 06:58:24;;;;;;;1.23;0.28;;;11.90;99.90;;;;;;5034377;28;20034;-90
2023/12/24 07:00:50;;;;;;;1.25;0.40;;;11.90;99.90;;;;;;5034417;28;20028;-89
2023/12/24 07:03:16;;;;;;;0.25;0.20;;;11.90;99.90;;;;;;5034019;28;20034;-89
2023/12/24 07:05:42;;;;;;;2.65;0.40;;;11.90;99.90;;;;;;5034292;28;20033;-89
2023/12/24 07:08:08;;;;;;;1.80;0.40;;;11.90;99.90;;;;;;5034375;28;20104;-88
2023/12/24 07:10:34;;;;;;;0.80;0.30;;;11.90;99.90;;;;;;5033936;28;20124;-89
2023/12/24 07:13:00;;;;;;;1.17;0.30;;;11.90;99.90;;;;;;5035260;28;20025;-89
2023/12/24 07:15:26;;;;;;;1.48;0.52;;;11.90;99.90;;;;;;5034106;28;20132;-89
2023/12/24 07:17:52;;;;;;;1.50;0.25;;;11.90;99.90;;;;;;5033814;28;20029;-89
2023/12/24 07:20:17;;;;;;;2.90;0.40;;;11.90;99.90;;;;;;5034811;28;20025;-88
2023/12/24 07:22:44;;;;;;;1.77;0.28;;;11.90;99.90;;;;;;5035074;28;20100;-89
2023/12/24 07:25:10;;;;;;;1.05;0.28;;;11.90;99.90;;;;;;5033712;28;20072;-88
2023/12/24 07:27:36;;;;;;;1.05;0.32;;;11.90;99.90;;;;;;5033877;28;20029;-89
2023/12/24 07:30:03;;;;;;;3.42;0.40;;;11.90;99.90;;;;;;5033456;28;20028;-88
2023/12/24 07:32:29;;;;;;;2.03;0.20;;;11.80;99.90;;;;;;5034245;28;20087;-89
2023/12/24 07:34:56;;;;;;;0.88;0.22;;;11.90;99.90;;;;;;5035114;28;20030;-89
2023/12/24 07:37:22;;;;;;;0.85;0.40;;;11.90;99.90;;;;;;5034601;28;20022;-89
2023/12/24 07:39:47;;;;;;;1.42;0.30;;;11.90;99.90;;;;;;5035882;28;20401;-89
2023/12/24 07:42:13;;;;;;;1.42;0.40;;;11.90;99.90;;;;;;5033989;28;20128;-89
2023/12/24 07:44:39;;;;;;;0.75;0.20;;;11.80;99.90;;;;;;5036596;28;20045;-89
2023/12/24 07:47:06;;;;;;;3.05;0.40;;;11.80;99.90;;;;;;5036550;28;20041;-87
2023/12/24 07:49:32;;;;;;;1.83;0.52;;;11.80;99.90;;;;;;5041169;28;20021;-89
2023/12/24 07:51:58;;;;;;;1.52;0.40;;;11.80;99.90;;;;;;5041564;28;20022;-89
2023/12/24 07:54:24;;;;;;;0.75;0.30;;;11.80;99.90;;;;;;5042948;28;20021;-90
2023/12/24 07:56:49;;;;;;;0.30;0.20;;;11.80;99.90;;;;;;5035874;28;20037;-89
2023/12/24 07:59:15;;;;;;;0.73;0.20;;;11.80;99.90;;;;;;5037255;28;20021;-90
2023/12/24 08:01:41;;;;;;;5.63;0.30;;;11.80;99.90;;;;;;5038192;28;20053;-88
2023/12/24 08:04:06;;;;;;;2.85;0.40;;;11.80;99.90;;;;;;5039359;28;20063;-89
2023/12/24 08:06:32;;;;;;;1.75;0.30;;;11.80;99.90;;;;;;5035667;28;20307;-89
2023/12/24 08:08:58;;;;;;;1.15;0.38;;;11.80;99.90;;;;;;5036051;28;20027;-90
2023/12/24 08:11:24;;;;;;;2.47;0.47;;;11.90;99.90;;;;;;5034894;28;20116;-89
2023/12/24 08:13:50;;;;;;;0.63;0.32;;;11.90;99.90;;;;;;5033150;28;20026;-89
2023/12/24 08:16:16;;;;;;;0.95;0.82;;;11.90;99.90;;;;;;5033641;28;20388;-89
2023/12/24 08:18:43;;;;;;;1.13;0.30;;;11.90;99.90;;;;;;5034365;28;20033;-89
2023/12/24 08:21:10;;;;;;;0.52;0.35;;;11.90;99.90;;;;;;5033070;28;20481;-89
2023/12/24 08:23:37;;;;;;;1.08;0.38;;;11.90;99.90;;;;;;5032858;28;20108;-89
2023/12/24 08:26:04;;;;;;;3.35;0.38;;;12.00;99.90;;;;;;5032918;28;20025;-89
2023/12/24 08:28:29;;;;;;;0.68;0.30;;;12.00;99.90;;;;;;5033912;28;20026;-89
2023/12/24 08:30:55;;;;;;;0.95;0.57;;;12.00;99.90;;;;;;5032612;28;20055;-89
2023/12/24 08:33:21;;;;;;;1.02;0.22;;;12.00;99.90;;;;;;5032877;28;20451;-89
2023/12/24 08:35:46;;;;;;;0.70;0.20;;;11.90;99.90;;;;;;5034051;28;20028;-89
2023/12/24 08:38:12;;;;;;;0.73;0.30;;;11.90;99.90;;;;;;5033799;28;20108;-89
2023/12/24 08:40:38;;;;;;;0.35;0.32;;;11.90;99.90;;;;;;5033006;28;20025;-89
2023/12/24 08:43:04;;;;;;;1.45;0.40;;;11.80;99.90;;;;;;5033079;28;20025;-89
2023/12/24 08:45:30;;;;;;;1.10;0.73;;;11.80;99.90;;;;;;5034323;28;20047;-89
2023/12/24 08:47:55;;;;;;;2.78;1.48;;;11.80;99.90;;;;;;5035641;28;20026;-89
2023/12/24 08:50:21;;;;;;;1.35;0.50;;;11.80;99.90;;;;;;5038057;28;20083;-89
2023/12/24 08:52:47;;;;;;;1.63;0.52;;;11.80;99.90;;;;;;5036534;28;20536;-90
2023/12/24 08:55:15;;;;;;;0.80;0.40;;;11.80;99.90;;;;;;5034468;28;20026;-90
2023/12/24 08:57:41;;;;;;;2.17;0.60;;;11.80;99.90;;;;;;5033589;28;20019;-89
2023/12/24 09:00:11;;;;;;;0.80;0.40;;;11.80;99.90;;;;;;5034146;28;20022;-89
2023/12/24 09:02:38;;;;;;;0.63;0.28;;;11.80;99.90;;;;;;5032362;28;20036;-89
2023/12/24 09:05:07;;;;;;;0.68;0.20;;;11.80;99.90;;;;;;5035456;28;20060;-89
2023/12/24 09:07:33;;;;;;;0.73;0.30;;;11.80;99.90;;;;;;5034425;28;20025;-90
2023/12/24 09:10:02;;;;;;;0.40;0.17;;;11.80;99.90;;;;;;5032714;28;20030;-88
2023/12/24 09:12:28;;;;;;;0.25;0.10;;;11.80;99.90;;;;;;5032399;28;20033;-88
2023/12/24 09:14:54;;;;;;;0.22;0.10;;;11.80;99.90;;;;;;5032250;28;20045;-89
2023/12/24 09:17:20;;;;;;;0.35;0.10;;;11.90;99.90;;;;;;5032519;28;20025;-89
2023/12/24 09:19:46;;;;;;;0.88;0.10;;;11.90;99.90;;;;;;5032645;28;20025;-89
2023/12/24 09:22:11;;;;;;;6.30;0.47;;;11.90;99.90;;;;;;5032898;28;20033;-90
2023/12/24 09:24:37;;;;;;;0.28;0.10;;;11.90;99.90;;;;;;5032122;28;20034;-90
2023/12/24 09:27:03;;;;;;;0.10;0.10;;;11.90;99.90;;;;;;5032604;28;20026;-90
2023/12/24 09:29:29;;;;;;;0.60;0.00;;;11.90;99.90;;;;;;5032228;28;20451;-90
2023/12/24 09:31:55;;;;;;;0.10;0.00;;;11.90;99.90;;;;;;5032372;28;20080;-90
2023/12/24 09:34:21;;;;;;;2.08;0.20;;;11.90;99.90;;;;;;5033675;28;20026;-90
2023/12/24 09:36:47;;;;;;;0.45;0.20;;;11.90;99.90;;;;;;5031994;28;20029;-90
2023/12/24 09:39:13;;;;;;;0.10;0.10;;;11.90;99.90;;;;;;5032326;28;20068;-90
2023/12/24 09:41:38;;;;;;;0.10;0.10;;;11.90;99.90;;;;;;5017412;28;20025;-89
2023/12/24 09:44:13;;;;;;;0.52;0.10;;;11.90;99.90;;;;;;5034228;28;20037;-90
2023/12/24 09:46:39;;;;;;;4.53;0.30;;;11.90;99.90;;;;;;5036213;28;20055;-90
2023/12/24 09:49:05;;;;;;;2.28;0.22;;;11.90;99.90;;;;;;5037034;28;20037;-89
2023/12/24 09:51:33;;;;;;;1.52;0.40;;;11.90;99.90;;;;;;5035680;28;20039;-90
2023/12/24 09:53:59;;;;;;;1.75;0.20;;;11.90;99.90;;;;;;5035977;28;20030;-90
2023/12/24 09:56:25;;;;;;;0.20;0.17;;;11.90;99.90;;;;;;5035447;28;20037;-90
2023/12/24 09:58:51;;;;;;;0.45;0.20;;;12.00;99.90;;;;;;5035658;28;20121;-90
2023/12/24 10:01:16;;;;;;;0.95;0.30;;;11.90;99.90;;;;;;5036514;28;20067;-89
2023/12/24 10:03:42;;;;;;;1.52;0.50;;;11.90;99.90;;;;;;5036582;28;20099;-90
2023/12/24 10:06:09;;;;;;;1.85;0.20;;;11.90;99.90;;;;;;5035739;28;20294;-90
2023/12/24 10:08:36;;;;;;;1.30;0.43;;;11.90;99.90;;;;;;5036242;28;20036;-90
2023/12/24 10:11:20;;;;;;;0.40;0.20;;;11.90;99.90;;;;;;5035317;28;20025;-89
2023/12/24 10:13:47;;;;;;;0.63;0.35;;;11.90;99.90;;;;;;5035772;28;20048;-89
2023/12/24 10:16:13;;;;;;;1.38;0.40;;;11.90;99.90;;;;;;5036614;28;20021;-89
2023/12/24 10:18:49;;;;;;;0.35;0.32;;;11.90;99.90;;;;;;5034887;28;20021;-89
2023/12/24 10:21:16;;;;;;;1.10;0.30;;;11.90;99.90;;;;;;5035316;28;20486;-89
2023/12/24 10:23:42;;;;;;;1.17;0.20;;;11.90;99.90;;;;;;5036253;28;20029;-89
2023/12/24 10:26:12;;;;;;;1.25;0.47;;;11.90;99.90;;;;;;5036172;28;20034;-89
2023/12/24 10:28:49;;;;;;;1.55;0.43;;;11.90;99.90;;;;;;5035050;28;20075;-89
2023/12/24 10:31:15;;;;;;;0.77;0.47;;;11.90;99.90;;;;;;5035634;28;20441;-89
2023/12/24 10:33:41;;;;;;;1.77;0.30;;;11.90;99.90;;;;;;5034918;28;20056;-88
2023/12/24 10:36:09;;;;;;;2.38;0.40;;;11.80;99.90;;;;;;5035283;28;20116;-89
2023/12/24 10:38:36;;;;;;;1.65;0.43;;;11.80;99.90;;;;;;5035522;28;20480;-89
2023/12/24 10:41:03;;;;;;;1.65;0.50;;;11.80;99.90;;;;;;5035743;28;20484;-89
2023/12/24 10:43:29;;;;;;;0.43;0.38;;;11.80;99.90;;;;;;5039452;28;20384;-89
2023/12/24 10:45:57;;;;;;;1.20;0.30;;;11.80;99.90;;;;;;5042545;28;20056;-90
2023/12/24 10:48:23;;;;;;;0.73;0.55;;;11.80;99.90;;;;;;5041897;28;20075;-89
2023/12/24 10:50:50;;;;;;;0.45;0.30;;;11.80;99.90;;;;;;5042230;28;20033;-89
2023/12/24 10:53:16;;;;;;;3.25;0.55;;;11.80;99.90;;;;;;5038710;28;20021;-89
2023/12/24 10:55:54;;;;;;;1.65;0.52;;;11.70;99.90;;;;;;5035742;28;20029;-87
2023/12/24 10:58:46;;;;;;;0.50;0.35;;;11.70;99.90;;;;;;5036599;28;20136;-90
2023/12/24 11:01:14;;;;;;;1.63;0.65;;;11.70;99.90;;;;;;5035894;28;20066;-87
2023/12/24 11:03:48;;;;;;;1.50;0.50;;;11.70;99.90;;;;;;5035693;28;20033;-89
2023/12/24 11:06:40;;;;;;;1.63;0.68;;;11.70;99.90;;;;;;5035433;28;20029;-89
2023/12/24 11:09:14;;;;;;;0.20;0.20;;;11.70;99.90;;;;;;5034598;28;20057;-90
2023/12/24 11:11:53;;;;;;;0.88;0.40;;;11.70;99.90;;;;;;5034660;28;20041;-89
2023/12/24 11:14:38;;;;;;;0.82;0.30;;;11.70;99.90;;;;;;5034385;28;20084;-89
2023/12/24 11:17:05;;;;;;;0.80;0.40;;;11.70;99.90;;;;;;5034462;28;20558;-89
2023/12/24 11:19:37;;;;;;;0.52;0.30;;;11.70;99.90;;;;;;5037450;28;20021;-89
2023/12/24 11:22:11;;;;;;;0.73;0.30;;;11.70;99.90;;;;;;5034442;28;20021;-89
2023/12/24 11:24:47;;;;;;;0.95;0.43;;;11.70;99.90;;;;;;5033837;28;20025;-88
2023/12/24 11:27:13;;;;;;;1.08;0.50;;;11.70;99.90;;;;;;5034143;28;20064;-88
2023/12/24 11:29:43;;;;;;;1.10;0.68;;;11.70;99.90;;;;;;5034211;28;20026;-88
2023/12/24 11:32:26;;;;;;;1.08;0.50;;;11.70;99.90;;;;;;5034350;28;20041;-89
2023/12/24 11:34:59;;;;;;;0.98;0.40;;;11.70;99.90;;;;;;5037016;28;20032;-89
2023/12/24 11:37:36;;;;;;;0.50;0.30;;;11.70;99.90;;;;;;5034178;28;20021;-89
2023/12/24 11:40:15;;;;;;;0.30;0.20;;;11.70;99.90;;;;;;5035347;28;20042;-89
2023/12/24 11:42:50;;;;;;;0.35;0.30;;;11.70;99.90;;;;;;5033824;28;20663;-89
2023/12/24 11:45:20;;;;;;;2.13;0.35;;;11.70;99.90;;;;;;5035466;28;20029;-90
2023/12/24 11:47:47;;;;;;;0.52;0.28;;;11.70;99.90;;;;;;5034308;28;20038;-89
2023/12/24 11:50:12;;;;;;;1.75;0.20;;;11.70;99.90;;;;;;5033947;28;20026;-89
2023/12/24 11:52:46;;;;;;;0.70;0.35;;;11.70;99.90;;;;;;5034722;28;20018;-88
2023/12/24 11:55:18;;;;;;;0.82;0.28;;;11.70;99.90;;;;;;5034383;28;20079;-89
2023/12/24 11:57:45;;;;;;;0.73;0.30;;;11.70;99.90;;;;;;5034053;28;20026;-89
2023/12/24 12:00:27;;;;;;;1.25;0.57;;;11.70;99.90;;;;;;5034855;28;20089;-88
2023/12/24 12:02:56;;;;;;;0.70;0.30;;;11.80;99.90;;;;;;5033911;28;20389;-89
2023/12/24 12:05:23;;;;;;;0.40;0.40;;;11.80;99.90;;;;;;5034980;28;20129;-88
2023/12/24 12:07:50;;;;;;;0.45;0.40;;;11.80;99.90;;;;;;5033406;28;20022;-89
2023/12/24 12:10:16;;;;;;;0.68;0.43;;;11.80;99.90;;;;;;5034531;28;20056;-90
2023/12/24 12:12:41;;;;;;;1.90;0.40;;;11.80;99.90;;;;;;5033950;28;20476;-89
2023/12/24 12:15:07;;;;;;;1.10;0.65;;;11.90;99.90;;;;;;5033483;28;20036;-89
2023/12/24 12:17:33;;;;;;;1.52;0.47;;;11.80;99.90;;;;;;5033184;28;20388;-89
2023/12/24 12:19:59;;;;;;;1.48;0.80;;;11.90;99.90;;;;;;5033545;28;20037;-90
2023/12/24 12:22:25;;;;;;;0.98;0.35;;;11.90;99.90;;;;;;5034405;28;20029;-89
2023/12/24 12:25:18;;;;;;;0.30;0.20;;;12.00;99.90;;;;;;5034764;28;20026;-88
2023/12/24 12:28:01;;;;;;;0.40;0.30;;;12.00;99.90;;;;;;5033837;28;20172;-89
2023/12/24 12:30:29;;;;;;;1.08;0.70;;;12.00;99.90;;;;;;5034721;28;20086;-89
2023/12/24 12:32:55;;;;;;;1.33;0.40;;;12.00;99.90;;;;;;5031343;28;20061;-90
2023/12/24 12:35:22;;;;;;;2.15;0.50;;;12.10;99.90;;;;;;5032728;28;20030;-90
2023/12/24 12:37:54;;;;;;;0.65;0.30;;;12.10;99.90;;;;;;5033499;28;20432;-88
2023/12/24 12:40:19;;;;;;;0.45;0.30;;;12.20;99.90;;;;;;5033428;28;20488;-90
2023/12/24 12:42:45;;;;;;;0.52;0.38;;;12.20;99.90;;;;;;5032926;28;20125;-90
2023/12/24 12:45:12;;;;;;;2.65;0.40;;;12.30;99.90;;;;;;5032705;28;20040;-90
2023/12/24 12:47:39;;;;;;;1.48;0.47;;;12.30;99.90;;;;;;5017126;28;20054;-90